sensor_id;sensor_type;location;lat;lon;timestamp;P1;durP1;ratioP1;P2;durP2;ratioP2
10701;SDS011;5402;50.004;8.246;2022-10-26T00:00:41;4.93;;;3.67;;
10701;SDS011;5402;50.004;8.246;2022-10-26T00:03:09;6.43;;;3.93;;
10701;SDS011;5402;50.004;8.246;2022-10-26T00:05:36;6.87;;;3.60;;
10701;SDS011;5402;50.004;8.246;2022-10-26T00:08:04;4.03;;;3.60;;
10701;SDS011;5402;50.004;8.246;2022-10-26T00:10:32;5.87;;;3.60;;
10701;SDS011;5402;50.004;8.246;2022-10-26T00:13:00;6.20;;;3.60;;
10701;SDS011;5402;50.004;8.246;2022-10-26T00:15:27;7.47;;;3.90;;
10701;SDS011;5402;50.004;8.246;2022-10-26T00:17:54;5.50;;;3.70;;
10701;SDS011;5402;50.004;8.246;2022-10-26T00:20:22;6.33;;;3.77;;
10701;SDS011;5402;50.004;8.246;2022-10-26T00:22:49;7.10;;;3.43;;
10701;SDS011;5402;50.004;8.246;2022-10-26T00:25:15;5.00;;;3.30;;
10701;SDS011;5402;50.004;8.246;2022-10-26T00:27:42;6.40;;;3.80;;
10701;SDS011;5402;50.004;8.246;2022-10-26T00:30:09;5.50;;;4.00;;
10701;SDS011;5402;50.004;8.246;2022-10-26T00:32:36;4.37;;;3.40;;
10701;SDS011;5402;50.004;8.246;2022-10-26T00:35:03;5.03;;;3.43;;
10701;SDS011;5402;50.004;8.246;2022-10-26T00:37:31;5.80;;;3.80;;
10701;SDS011;5402;50.004;8.246;2022-10-26T00:39:58;7.27;;;3.80;;
10701;SDS011;5402;50.004;8.246;2022-10-26T00:42:25;5.80;;;4.23;;
10701;SDS011;5402;50.004;8.246;2022-10-26T00:44:58;6.73;;;4.30;;
10701;SDS011;5402;50.004;8.246;2022-10-26T00:47:36;4.93;;;4.03;;
10701;SDS011;5402;50.004;8.246;2022-10-26T00:50:07;5.13;;;3.70;;
10701;SDS011;5402;50.004;8.246;2022-10-26T00:52:38;5.13;;;3.97;;
10701;SDS011;5402;50.004;8.246;2022-10-26T00:55:05;5.27;;;3.83;;
10701;SDS011;5402;50.004;8.246;2022-10-26T00:57:34;6.23;;;3.80;;
10701;SDS011;5402;50.004;8.246;2022-10-26T01:00:02;5.10;;;3.70;;
10701;SDS011;5402;50.004;8.246;2022-10-26T01:02:30;5.70;;;3.87;;
10701;SDS011;5402;50.004;8.246;2022-10-26T01:04:57;7.17;;;3.90;;
10701;SDS011;5402;50.004;8.246;2022-10-26T01:07:24;7.87;;;4.20;;
10701;SDS011;5402;50.004;8.246;2022-10-26T01:09:53;10.60;;;4.47;;
10701;SDS011;5402;50.004;8.246;2022-10-26T01:12:20;7.07;;;4.00;;
10701;SDS011;5402;50.004;8.246;2022-10-26T01:14:47;4.93;;;4.07;;
10701;SDS011;5402;50.004;8.246;2022-10-26T01:17:26;6.37;;;3.90;;
10701;SDS011;5402;50.004;8.246;2022-10-26T01:23:00;7.20;;;4.13;;
10701;SDS011;5402;50.004;8.246;2022-10-26T01:25:43;5.87;;;3.97;;
10701;SDS011;5402;50.004;8.246;2022-10-26T01:28:31;8.20;;;3.97;;
10701;SDS011;5402;50.004;8.246;2022-10-26T01:31:06;5.27;;;3.87;;
10701;SDS011;5402;50.004;8.246;2022-10-26T01:33:37;6.87;;;3.93;;
10701;SDS011;5402;50.004;8.246;2022-10-26T01:36:09;7.20;;;3.90;;
10701;SDS011;5402;50.004;8.246;2022-10-26T01:38:41;5.37;;;3.70;;
10701;SDS011;5402;50.004;8.246;2022-10-26T01:41:20;7.73;;;4.50;;
10701;SDS011;5402;50.004;8.246;2022-10-26T01:43:53;5.50;;;4.03;;
10701;SDS011;5402;50.004;8.246;2022-10-26T01:46:24;6.37;;;4.10;;
10701;SDS011;5402;50.004;8.246;2022-10-26T01:48:54;6.67;;;4.20;;
10701;SDS011;5402;50.004;8.246;2022-10-26T01:51:25;9.50;;;4.20;;
10701;SDS011;5402;50.004;8.246;2022-10-26T01:53:52;10.40;;;4.10;;
10701;SDS011;5402;50.004;8.246;2022-10-26T01:56:20;5.73;;;4.20;;
10701;SDS011;5402;50.004;8.246;2022-10-26T01:59:00;5.93;;;4.10;;
10701;SDS011;5402;50.004;8.246;2022-10-26T02:01:43;5.63;;;4.07;;
10701;SDS011;5402;50.004;8.246;2022-10-26T02:04:33;7.17;;;4.20;;
10701;SDS011;5402;50.004;8.246;2022-10-26T02:07:10;5.67;;;3.90;;
10701;SDS011;5402;50.004;8.246;2022-10-26T02:09:44;6.23;;;3.93;;
10701;SDS011;5402;50.004;8.246;2022-10-26T02:12:28;4.57;;;3.67;;
10701;SDS011;5402;50.004;8.246;2022-10-26T02:15:03;5.30;;;3.87;;
10701;SDS011;5402;50.004;8.246;2022-10-26T02:17:34;9.20;;;4.07;;
10701;SDS011;5402;50.004;8.246;2022-10-26T02:20:08;8.20;;;5.30;;
10701;SDS011;5402;50.004;8.246;2022-10-26T02:22:42;6.53;;;4.17;;
10701;SDS011;5402;50.004;8.246;2022-10-26T02:25:13;6.00;;;4.07;;
10701;SDS011;5402;50.004;8.246;2022-10-26T02:27:43;10.50;;;3.87;;
10701;SDS011;5402;50.004;8.246;2022-10-26T02:30:16;7.27;;;3.70;;
10701;SDS011;5402;50.004;8.246;2022-10-26T02:32:46;6.07;;;4.17;;
10701;SDS011;5402;50.004;8.246;2022-10-26T02:35:16;5.40;;;4.00;;
10701;SDS011;5402;50.004;8.246;2022-10-26T02:37:47;7.70;;;3.90;;
10701;SDS011;5402;50.004;8.246;2022-10-26T02:40:18;7.10;;;4.40;;
10701;SDS011;5402;50.004;8.246;2022-10-26T02:42:47;8.17;;;3.43;;
10701;SDS011;5402;50.004;8.246;2022-10-26T02:45:18;8.83;;;4.03;;
10701;SDS011;5402;50.004;8.246;2022-10-26T02:47:51;6.67;;;3.97;;
10701;SDS011;5402;50.004;8.246;2022-10-26T02:50:19;4.63;;;3.80;;
10701;SDS011;5402;50.004;8.246;2022-10-26T02:52:53;5.70;;;3.50;;
10701;SDS011;5402;50.004;8.246;2022-10-26T02:55:27;4.53;;;3.47;;
10701;SDS011;5402;50.004;8.246;2022-10-26T02:57:59;8.63;;;3.70;;
10701;SDS011;5402;50.004;8.246;2022-10-26T03:00:27;9.17;;;4.10;;
10701;SDS011;5402;50.004;8.246;2022-10-26T03:02:57;5.60;;;3.73;;
10701;SDS011;5402;50.004;8.246;2022-10-26T03:05:27;5.83;;;4.20;;
10701;SDS011;5402;50.004;8.246;2022-10-26T03:07:56;5.93;;;3.73;;
10701;SDS011;5402;50.004;8.246;2022-10-26T03:10:24;4.60;;;3.40;;
10701;SDS011;5402;50.004;8.246;2022-10-26T03:12:51;6.80;;;3.80;;
10701;SDS011;5402;50.004;8.246;2022-10-26T03:15:17;6.90;;;3.70;;
10701;SDS011;5402;50.004;8.246;2022-10-26T03:17:44;8.60;;;3.60;;
10701;SDS011;5402;50.004;8.246;2022-10-26T03:20:12;4.37;;;3.67;;
10701;SDS011;5402;50.004;8.246;2022-10-26T03:22:39;5.83;;;3.70;;
10701;SDS011;5402;50.004;8.246;2022-10-26T03:25:06;5.53;;;3.40;;
10701;SDS011;5402;50.004;8.246;2022-10-26T03:27:33;6.90;;;3.93;;
10701;SDS011;5402;50.004;8.246;2022-10-26T03:30:00;6.90;;;3.97;;
10701;SDS011;5402;50.004;8.246;2022-10-26T03:32:27;8.73;;;3.80;;
10701;SDS011;5402;50.004;8.246;2022-10-26T03:34:53;4.43;;;4.00;;
10701;SDS011;5402;50.004;8.246;2022-10-26T03:37:21;7.00;;;4.10;;
10701;SDS011;5402;50.004;8.246;2022-10-26T03:39:48;6.23;;;3.87;;
10701;SDS011;5402;50.004;8.246;2022-10-26T03:42:15;5.37;;;3.83;;
10701;SDS011;5402;50.004;8.246;2022-10-26T03:44:42;6.70;;;4.30;;
10701;SDS011;5402;50.004;8.246;2022-10-26T03:47:08;7.00;;;3.90;;
10701;SDS011;5402;50.004;8.246;2022-10-26T03:49:35;6.17;;;3.80;;
10701;SDS011;5402;50.004;8.246;2022-10-26T03:52:02;8.63;;;4.40;;
10701;SDS011;5402;50.004;8.246;2022-10-26T03:54:30;6.10;;;3.97;;
10701;SDS011;5402;50.004;8.246;2022-10-26T03:56:57;8.00;;;4.20;;
10701;SDS011;5402;50.004;8.246;2022-10-26T03:59:24;9.13;;;4.07;;
10701;SDS011;5402;50.004;8.246;2022-10-26T04:01:50;8.43;;;4.47;;
10701;SDS011;5402;50.004;8.246;2022-10-26T04:04:17;8.70;;;4.37;;
10701;SDS011;5402;50.004;8.246;2022-10-26T04:06:44;5.07;;;4.20;;
10701;SDS011;5402;50.004;8.246;2022-10-26T04:09:10;7.00;;;4.57;;
10701;SDS011;5402;50.004;8.246;2022-10-26T04:11:38;6.23;;;4.07;;
10701;SDS011;5402;50.004;8.246;2022-10-26T04:14:05;5.63;;;3.97;;
10701;SDS011;5402;50.004;8.246;2022-10-26T04:16:32;8.43;;;4.13;;
10701;SDS011;5402;50.004;8.246;2022-10-26T04:18:59;6.73;;;4.30;;
10701;SDS011;5402;50.004;8.246;2022-10-26T04:21:26;7.53;;;4.23;;
10701;SDS011;5402;50.004;8.246;2022-10-26T04:23:52;7.30;;;4.40;;
10701;SDS011;5402;50.004;8.246;2022-10-26T04:26:19;8.83;;;4.90;;
10701;SDS011;5402;50.004;8.246;2022-10-26T04:28:47;5.80;;;4.40;;
10701;SDS011;5402;50.004;8.246;2022-10-26T04:31:14;5.13;;;4.17;;
10701;SDS011;5402;50.004;8.246;2022-10-26T04:33:41;7.50;;;4.37;;
10701;SDS011;5402;50.004;8.246;2022-10-26T04:36:08;6.03;;;4.80;;
10701;SDS011;5402;50.004;8.246;2022-10-26T04:38:34;6.37;;;4.37;;
10701;SDS011;5402;50.004;8.246;2022-10-26T04:41:01;7.27;;;4.73;;
10701;SDS011;5402;50.004;8.246;2022-10-26T04:43:28;7.70;;;4.60;;
10701;SDS011;5402;50.004;8.246;2022-10-26T04:45:57;5.43;;;4.43;;
10701;SDS011;5402;50.004;8.246;2022-10-26T04:48:24;7.13;;;4.40;;
10701;SDS011;5402;50.004;8.246;2022-10-26T04:50:51;5.87;;;4.80;;
10701;SDS011;5402;50.004;8.246;2022-10-26T04:53:17;8.33;;;4.67;;
10701;SDS011;5402;50.004;8.246;2022-10-26T04:55:44;6.83;;;3.93;;
10701;SDS011;5402;50.004;8.246;2022-10-26T04:58:11;6.37;;;4.07;;
10701;SDS011;5402;50.004;8.246;2022-10-26T05:00:37;5.40;;;4.10;;
10701;SDS011;5402;50.004;8.246;2022-10-26T05:03:06;7.23;;;4.00;;
10701;SDS011;5402;50.004;8.246;2022-10-26T05:05:33;7.90;;;4.13;;
10701;SDS011;5402;50.004;8.246;2022-10-26T05:08:01;6.30;;;4.07;;
10701;SDS011;5402;50.004;8.246;2022-10-26T05:10:29;4.87;;;4.20;;
10701;SDS011;5402;50.004;8.246;2022-10-26T05:12:56;5.40;;;3.97;;
10701;SDS011;5402;50.004;8.246;2022-10-26T05:15:24;5.90;;;4.00;;
10701;SDS011;5402;50.004;8.246;2022-10-26T05:17:55;6.47;;;4.00;;
10701;SDS011;5402;50.004;8.246;2022-10-26T05:20:24;6.87;;;4.57;;
10701;SDS011;5402;50.004;8.246;2022-10-26T05:22:54;10.93;;;4.50;;
10701;SDS011;5402;50.004;8.246;2022-10-26T05:25:21;6.80;;;4.60;;
10701;SDS011;5402;50.004;8.246;2022-10-26T05:27:47;7.17;;;4.50;;
10701;SDS011;5402;50.004;8.246;2022-10-26T05:30:14;7.20;;;4.47;;
10701;SDS011;5402;50.004;8.246;2022-10-26T05:32:41;5.97;;;4.97;;
10701;SDS011;5402;50.004;8.246;2022-10-26T05:35:08;6.43;;;4.37;;
10701;SDS011;5402;50.004;8.246;2022-10-26T05:37:36;5.23;;;4.73;;
10701;SDS011;5402;50.004;8.246;2022-10-26T05:40:03;8.07;;;5.13;;
10701;SDS011;5402;50.004;8.246;2022-10-26T05:42:30;6.63;;;4.80;;
10701;SDS011;5402;50.004;8.246;2022-10-26T05:44:57;5.77;;;4.40;;
10701;SDS011;5402;50.004;8.246;2022-10-26T05:47:23;4.80;;;4.13;;
10701;SDS011;5402;50.004;8.246;2022-10-26T05:49:50;9.30;;;4.60;;
10701;SDS011;5402;50.004;8.246;2022-10-26T05:52:17;5.57;;;4.83;;
10701;SDS011;5402;50.004;8.246;2022-10-26T05:54:45;9.07;;;4.63;;
10701;SDS011;5402;50.004;8.246;2022-10-26T05:57:12;7.33;;;4.43;;
10701;SDS011;5402;50.004;8.246;2022-10-26T05:59:39;7.60;;;4.50;;
10701;SDS011;5402;50.004;8.246;2022-10-26T06:02:08;9.93;;;4.93;;
10701;SDS011;5402;50.004;8.246;2022-10-26T06:04:43;5.23;;;4.40;;
10701;SDS011;5402;50.004;8.246;2022-10-26T06:07:13;8.83;;;4.87;;
10701;SDS011;5402;50.004;8.246;2022-10-26T06:09:41;7.30;;;4.70;;
10701;SDS011;5402;50.004;8.246;2022-10-26T06:12:11;7.27;;;5.07;;
10701;SDS011;5402;50.004;8.246;2022-10-26T06:14:38;8.10;;;5.17;;
10701;SDS011;5402;50.004;8.246;2022-10-26T06:17:09;7.87;;;4.70;;
10701;SDS011;5402;50.004;8.246;2022-10-26T06:19:46;9.97;;;4.53;;
10701;SDS011;5402;50.004;8.246;2022-10-26T06:22:43;5.70;;;4.50;;
10701;SDS011;5402;50.004;8.246;2022-10-26T06:25:21;5.23;;;4.23;;
10701;SDS011;5402;50.004;8.246;2022-10-26T06:27:57;7.40;;;4.47;;
10701;SDS011;5402;50.004;8.246;2022-10-26T06:30:31;7.87;;;4.00;;
10701;SDS011;5402;50.004;8.246;2022-10-26T06:32:57;9.07;;;4.60;;
10701;SDS011;5402;50.004;8.246;2022-10-26T06:35:30;7.60;;;4.30;;
10701;SDS011;5402;50.004;8.246;2022-10-26T06:38:02;10.83;;;4.97;;
10701;SDS011;5402;50.004;8.246;2022-10-26T06:40:32;7.20;;;4.37;;
10701;SDS011;5402;50.004;8.246;2022-10-26T06:43:03;12.07;;;4.37;;
10701;SDS011;5402;50.004;8.246;2022-10-26T06:45:38;7.47;;;4.83;;
10701;SDS011;5402;50.004;8.246;2022-10-26T06:48:07;8.60;;;4.63;;
10701;SDS011;5402;50.004;8.246;2022-10-26T06:50:41;12.30;;;4.87;;
10701;SDS011;5402;50.004;8.246;2022-10-26T06:53:17;6.73;;;4.07;;
10701;SDS011;5402;50.004;8.246;2022-10-26T06:55:50;6.30;;;4.57;;
10701;SDS011;5402;50.004;8.246;2022-10-26T06:58:20;7.90;;;4.57;;
10701;SDS011;5402;50.004;8.246;2022-10-26T07:00:49;8.83;;;4.30;;
10701;SDS011;5402;50.004;8.246;2022-10-26T07:03:18;9.13;;;4.67;;
10701;SDS011;5402;50.004;8.246;2022-10-26T07:05:45;8.23;;;4.60;;
10701;SDS011;5402;50.004;8.246;2022-10-26T07:08:12;5.37;;;4.20;;
10701;SDS011;5402;50.004;8.246;2022-10-26T07:10:39;8.23;;;4.37;;
10701;SDS011;5402;50.004;8.246;2022-10-26T07:13:07;9.20;;;4.97;;
10701;SDS011;5402;50.004;8.246;2022-10-26T07:15:36;7.43;;;4.63;;
10701;SDS011;5402;50.004;8.246;2022-10-26T07:18:09;7.73;;;4.33;;
10701;SDS011;5402;50.004;8.246;2022-10-26T07:20:36;6.23;;;4.50;;
10701;SDS011;5402;50.004;8.246;2022-10-26T07:23:04;5.57;;;4.28;;
10701;SDS011;5402;50.004;8.246;2022-10-26T07:25:32;7.90;;;4.80;;
10701;SDS011;5402;50.004;8.246;2022-10-26T07:28:03;7.37;;;4.80;;
10701;SDS011;5402;50.004;8.246;2022-10-26T07:30:30;14.70;;;5.40;;
10701;SDS011;5402;50.004;8.246;2022-10-26T07:32:59;9.87;;;5.23;;
10701;SDS011;5402;50.004;8.246;2022-10-26T07:35:26;9.70;;;5.20;;
10701;SDS011;5402;50.004;8.246;2022-10-26T07:37:56;6.47;;;4.97;;
10701;SDS011;5402;50.004;8.246;2022-10-26T07:40:23;9.30;;;4.70;;
10701;SDS011;5402;50.004;8.246;2022-10-26T07:42:51;7.67;;;5.60;;
10701;SDS011;5402;50.004;8.246;2022-10-26T07:45:17;9.77;;;5.20;;
10701;SDS011;5402;50.004;8.246;2022-10-26T07:47:44;8.43;;;5.07;;
10701;SDS011;5402;50.004;8.246;2022-10-26T07:50:13;7.87;;;5.33;;
10701;SDS011;5402;50.004;8.246;2022-10-26T07:52:39;9.80;;;5.67;;
10701;SDS011;5402;50.004;8.246;2022-10-26T07:55:07;11.13;;;5.87;;
10701;SDS011;5402;50.004;8.246;2022-10-26T07:57:35;11.60;;;5.60;;
10701;SDS011;5402;50.004;8.246;2022-10-26T08:00:02;7.63;;;5.13;;
10701;SDS011;5402;50.004;8.246;2022-10-26T08:02:30;13.10;;;5.27;;
10701;SDS011;5402;50.004;8.246;2022-10-26T08:04:57;9.43;;;5.20;;
10701;SDS011;5402;50.004;8.246;2022-10-26T08:07:25;9.80;;;5.27;;
10701;SDS011;5402;50.004;8.246;2022-10-26T08:09:52;8.70;;;5.70;;
10701;SDS011;5402;50.004;8.246;2022-10-26T08:12:19;11.23;;;5.37;;
10701;SDS011;5402;50.004;8.246;2022-10-26T08:14:46;9.33;;;5.07;;
10701;SDS011;5402;50.004;8.246;2022-10-26T08:17:13;11.33;;;5.67;;
10701;SDS011;5402;50.004;8.246;2022-10-26T08:19:39;9.80;;;5.60;;
10701;SDS011;5402;50.004;8.246;2022-10-26T08:22:06;9.67;;;5.23;;
10701;SDS011;5402;50.004;8.246;2022-10-26T08:24:35;7.93;;;5.00;;
10701;SDS011;5402;50.004;8.246;2022-10-26T08:27:08;6.70;;;4.67;;
10701;SDS011;5402;50.004;8.246;2022-10-26T08:29:36;10.00;;;4.43;;
10701;SDS011;5402;50.004;8.246;2022-10-26T08:32:03;6.20;;;3.87;;
10701;SDS011;5402;50.004;8.246;2022-10-26T08:34:32;7.53;;;4.50;;
10701;SDS011;5402;50.004;8.246;2022-10-26T08:36:58;7.63;;;4.80;;
10701;SDS011;5402;50.004;8.246;2022-10-26T08:39:25;7.67;;;4.23;;
10701;SDS011;5402;50.004;8.246;2022-10-26T08:41:55;6.80;;;4.13;;
10701;SDS011;5402;50.004;8.246;2022-10-26T08:44:28;7.20;;;4.07;;
10701;SDS011;5402;50.004;8.246;2022-10-26T08:47:02;6.13;;;4.00;;
10701;SDS011;5402;50.004;8.246;2022-10-26T08:49:35;6.43;;;3.93;;
10701;SDS011;5402;50.004;8.246;2022-10-26T08:52:09;7.20;;;4.17;;
10701;SDS011;5402;50.004;8.246;2022-10-26T08:54:40;6.23;;;4.00;;
10701;SDS011;5402;50.004;8.246;2022-10-26T08:57:12;11.50;;;4.50;;
10701;SDS011;5402;50.004;8.246;2022-10-26T08:59:43;5.07;;;3.90;;
10701;SDS011;5402;50.004;8.246;2022-10-26T09:02:16;8.37;;;4.13;;
10701;SDS011;5402;50.004;8.246;2022-10-26T09:04:43;8.90;;;4.13;;
10701;SDS011;5402;50.004;8.246;2022-10-26T09:07:11;7.67;;;4.30;;
10701;SDS011;5402;50.004;8.246;2022-10-26T09:09:48;10.20;;;4.27;;
10701;SDS011;5402;50.004;8.246;2022-10-26T09:12:26;7.00;;;4.83;;
10701;SDS011;5402;50.004;8.246;2022-10-26T09:15:03;6.77;;;3.83;;
10701;SDS011;5402;50.004;8.246;2022-10-26T09:17:39;5.43;;;4.20;;
10701;SDS011;5402;50.004;8.246;2022-10-26T09:20:18;5.63;;;4.00;;
10701;SDS011;5402;50.004;8.246;2022-10-26T09:23:05;6.70;;;4.00;;
10701;SDS011;5402;50.004;8.246;2022-10-26T09:25:44;6.30;;;3.60;;
10701;SDS011;5402;50.004;8.246;2022-10-26T09:28:17;6.63;;;3.90;;
10701;SDS011;5402;50.004;8.246;2022-10-26T09:30:44;6.77;;;4.10;;
10701;SDS011;5402;50.004;8.246;2022-10-26T09:33:13;7.13;;;3.60;;
10701;SDS011;5402;50.004;8.246;2022-10-26T09:35:42;5.60;;;3.50;;
10701;SDS011;5402;50.004;8.246;2022-10-26T09:38:15;6.57;;;3.73;;
10701;SDS011;5402;50.004;8.246;2022-10-26T09:40:47;7.27;;;3.77;;
10701;SDS011;5402;50.004;8.246;2022-10-26T09:43:23;6.03;;;3.57;;
10701;SDS011;5402;50.004;8.246;2022-10-26T09:45:53;5.47;;;3.40;;
10701;SDS011;5402;50.004;8.246;2022-10-26T09:48:21;4.87;;;3.20;;
10701;SDS011;5402;50.004;8.246;2022-10-26T09:50:55;5.20;;;4.10;;
10701;SDS011;5402;50.004;8.246;2022-10-26T09:53:24;6.43;;;3.30;;
10701;SDS011;5402;50.004;8.246;2022-10-26T09:56:00;8.23;;;5.03;;
10701;SDS011;5402;50.004;8.246;2022-10-26T09:58:33;9.00;;;6.17;;
10701;SDS011;5402;50.004;8.246;2022-10-26T10:01:03;7.17;;;3.93;;
10701;SDS011;5402;50.004;8.246;2022-10-26T10:03:30;5.20;;;3.43;;
10701;SDS011;5402;50.004;8.246;2022-10-26T10:06:14;4.93;;;2.97;;
10701;SDS011;5402;50.004;8.246;2022-10-26T10:08:42;4.97;;;3.10;;
10701;SDS011;5402;50.004;8.246;2022-10-26T10:11:25;6.03;;;2.93;;
10701;SDS011;5402;50.004;8.246;2022-10-26T10:14:06;4.27;;;3.37;;
10701;SDS011;5402;50.004;8.246;2022-10-26T10:16:33;5.13;;;2.97;;
10701;SDS011;5402;50.004;8.246;2022-10-26T10:19:01;5.07;;;2.67;;
10701;SDS011;5402;50.004;8.246;2022-10-26T10:21:32;6.03;;;2.83;;
10701;SDS011;5402;50.004;8.246;2022-10-26T10:24:00;6.97;;;3.13;;
10701;SDS011;5402;50.004;8.246;2022-10-26T10:26:27;4.63;;;2.60;;
10701;SDS011;5402;50.004;8.246;2022-10-26T10:28:56;5.43;;;3.57;;
10701;SDS011;5402;50.004;8.246;2022-10-26T10:31:30;3.60;;;2.47;;
10701;SDS011;5402;50.004;8.246;2022-10-26T10:33:57;8.60;;;2.80;;
10701;SDS011;5402;50.004;8.246;2022-10-26T10:36:26;5.00;;;2.40;;
10701;SDS011;5402;50.004;8.246;2022-10-26T10:38:54;3.33;;;2.20;;
10701;SDS011;5402;50.004;8.246;2022-10-26T10:41:23;5.67;;;2.67;;
10701;SDS011;5402;50.004;8.246;2022-10-26T10:43:53;4.77;;;2.20;;
10701;SDS011;5402;50.004;8.246;2022-10-26T10:46:25;4.97;;;2.47;;
10701;SDS011;5402;50.004;8.246;2022-10-26T10:48:59;3.97;;;2.23;;
10701;SDS011;5402;50.004;8.246;2022-10-26T10:51:29;5.60;;;2.33;;
10701;SDS011;5402;50.004;8.246;2022-10-26T10:54:00;2.97;;;2.20;;
10701;SDS011;5402;50.004;8.246;2022-10-26T10:56:32;4.83;;;2.67;;
10701;SDS011;5402;50.004;8.246;2022-10-26T10:59:16;2.60;;;1.97;;
10701;SDS011;5402;50.004;8.246;2022-10-26T11:01:58;5.80;;;2.70;;
10701;SDS011;5402;50.004;8.246;2022-10-26T11:04:53;4.10;;;2.37;;
10701;SDS011;5402;50.004;8.246;2022-10-26T11:07:35;4.13;;;2.27;;
10701;SDS011;5402;50.004;8.246;2022-10-26T11:10:08;3.53;;;2.40;;
10701;SDS011;5402;50.004;8.246;2022-10-26T11:12:42;5.83;;;2.70;;
10701;SDS011;5402;50.004;8.246;2022-10-26T11:15:13;4.07;;;2.33;;
10701;SDS011;5402;50.004;8.246;2022-10-26T11:17:47;2.77;;;2.27;;
10701;SDS011;5402;50.004;8.246;2022-10-26T11:20:21;4.80;;;2.10;;
10701;SDS011;5402;50.004;8.246;2022-10-26T11:22:57;3.80;;;2.20;;
10701;SDS011;5402;50.004;8.246;2022-10-26T11:25:29;5.90;;;2.50;;
10701;SDS011;5402;50.004;8.246;2022-10-26T11:28:01;6.00;;;2.43;;
10701;SDS011;5402;50.004;8.246;2022-10-26T11:30:36;4.90;;;2.37;;
10701;SDS011;5402;50.004;8.246;2022-10-26T11:33:12;4.80;;;2.40;;
10701;SDS011;5402;50.004;8.246;2022-10-26T11:35:49;4.00;;;2.30;;
10701;SDS011;5402;50.004;8.246;2022-10-26T11:38:22;3.57;;;2.40;;
10701;SDS011;5402;50.004;8.246;2022-10-26T11:40:56;3.30;;;2.40;;
10701;SDS011;5402;50.004;8.246;2022-10-26T11:43:29;5.37;;;2.20;;
10701;SDS011;5402;50.004;8.246;2022-10-26T11:46:02;4.27;;;2.20;;
10701;SDS011;5402;50.004;8.246;2022-10-26T11:48:34;4.97;;;2.30;;
10701;SDS011;5402;50.004;8.246;2022-10-26T11:51:08;4.30;;;2.50;;
10701;SDS011;5402;50.004;8.246;2022-10-26T11:53:41;3.83;;;2.40;;
10701;SDS011;5402;50.004;8.246;2022-10-26T11:56:11;7.17;;;2.80;;
10701;SDS011;5402;50.004;8.246;2022-10-26T11:58:50;7.33;;;2.30;;
10701;SDS011;5402;50.004;8.246;2022-10-26T12:01:18;3.93;;;2.20;;
10701;SDS011;5402;50.004;8.246;2022-10-26T12:03:46;3.87;;;2.57;;
10701;SDS011;5402;50.004;8.246;2022-10-26T12:06:19;6.87;;;2.83;;
10701;SDS011;5402;50.004;8.246;2022-10-26T12:08:52;4.47;;;2.33;;
10701;SDS011;5402;50.004;8.246;2022-10-26T12:11:25;3.97;;;2.60;;
10701;SDS011;5402;50.004;8.246;2022-10-26T12:14:02;5.23;;;2.93;;
10701;SDS011;5402;50.004;8.246;2022-10-26T12:16:42;3.80;;;2.33;;
10701;SDS011;5402;50.004;8.246;2022-10-26T12:19:16;4.72;;;2.47;;
10701;SDS011;5402;50.004;8.246;2022-10-26T12:21:49;4.60;;;2.28;;
10701;SDS011;5402;50.004;8.246;2022-10-26T12:24:26;5.03;;;2.27;;
10701;SDS011;5402;50.004;8.246;2022-10-26T12:26:58;3.08;;;2.38;;
10701;SDS011;5402;50.004;8.246;2022-10-26T12:29:32;6.47;;;2.70;;
10701;SDS011;5402;50.004;8.246;2022-10-26T12:32:02;4.18;;;2.22;;
10701;SDS011;5402;50.004;8.246;2022-10-26T12:35:00;6.82;;;2.38;;
10701;SDS011;5402;50.004;8.246;2022-10-26T12:37:32;6.05;;;2.30;;
10701;SDS011;5402;50.004;8.246;2022-10-26T12:52:24;3.95;;;2.45;;
10701;SDS011;5402;50.004;8.246;2022-10-26T12:58:11;3.20;;;2.27;;
10701;SDS011;5402;50.004;8.246;2022-10-26T13:01:07;4.32;;;2.30;;
10701;SDS011;5402;50.004;8.246;2022-10-26T13:03:47;5.35;;;2.22;;
10701;SDS011;5402;50.004;8.246;2022-10-26T13:06:27;3.50;;;2.30;;
10701;SDS011;5402;50.004;8.246;2022-10-26T13:09:12;5.70;;;2.20;;
10701;SDS011;5402;50.004;8.246;2022-10-26T13:11:44;6.78;;;2.20;;
10701;SDS011;5402;50.004;8.246;2022-10-26T13:14:17;7.82;;;2.42;;
10701;SDS011;5402;50.004;8.246;2022-10-26T13:16:57;4.65;;;2.28;;
10701;SDS011;5402;50.004;8.246;2022-10-26T13:19:25;5.53;;;2.10;;
10701;SDS011;5402;50.004;8.246;2022-10-26T13:21:56;4.10;;;2.00;;
10701;SDS011;5402;50.004;8.246;2022-10-26T13:24:25;4.78;;;2.22;;
10701;SDS011;5402;50.004;8.246;2022-10-26T13:30:18;3.53;;;2.13;;
10701;SDS011;5402;50.004;8.246;2022-10-26T13:33:20;4.88;;;1.80;;
10701;SDS011;5402;50.004;8.246;2022-10-26T13:35:51;4.00;;;1.90;;
10701;SDS011;5402;50.004;8.246;2022-10-26T13:38:22;4.70;;;1.73;;
10701;SDS011;5402;50.004;8.246;2022-10-26T13:40:55;4.55;;;1.80;;
10701;SDS011;5402;50.004;8.246;2022-10-26T13:43:40;4.20;;;1.80;;
10701;SDS011;5402;50.004;8.246;2022-10-26T13:46:12;4.53;;;2.17;;
10701;SDS011;5402;50.004;8.246;2022-10-26T13:48:49;7.70;;;2.30;;
10701;SDS011;5402;50.004;8.246;2022-10-26T13:51:19;8.52;;;2.40;;
10701;SDS011;5402;50.004;8.246;2022-10-26T13:53:49;9.10;;;2.58;;
10701;SDS011;5402;50.004;8.246;2022-10-26T13:56:23;5.35;;;1.88;;
10701;SDS011;5402;50.004;8.246;2022-10-26T13:58:54;6.28;;;1.85;;
10701;SDS011;5402;50.004;8.246;2022-10-26T14:01:26;3.70;;;1.67;;
10701;SDS011;5402;50.004;8.246;2022-10-26T14:03:53;3.00;;;1.73;;
10701;SDS011;5402;50.004;8.246;2022-10-26T14:06:22;5.57;;;1.92;;
10701;SDS011;5402;50.004;8.246;2022-10-26T14:08:53;3.30;;;1.70;;
10701;SDS011;5402;50.004;8.246;2022-10-26T14:11:24;5.65;;;1.90;;
10701;SDS011;5402;50.004;8.246;2022-10-26T14:13:56;5.38;;;1.58;;
10701;SDS011;5402;50.004;8.246;2022-10-26T14:16:24;3.92;;;1.65;;
10701;SDS011;5402;50.004;8.246;2022-10-26T14:18:55;3.25;;;1.60;;
10701;SDS011;5402;50.004;8.246;2022-10-26T14:21:22;4.90;;;2.25;;
10701;SDS011;5402;50.004;8.246;2022-10-26T14:23:49;3.90;;;2.00;;
10701;SDS011;5402;50.004;8.246;2022-10-26T14:26:20;3.45;;;2.33;;
10701;SDS011;5402;50.004;8.246;2022-10-26T14:28:48;3.08;;;1.83;;
10701;SDS011;5402;50.004;8.246;2022-10-26T14:31:20;3.20;;;1.83;;
10701;SDS011;5402;50.004;8.246;2022-10-26T14:33:51;4.85;;;2.42;;
10701;SDS011;5402;50.004;8.246;2022-10-26T14:36:19;4.40;;;2.20;;
10701;SDS011;5402;50.004;8.246;2022-10-26T14:38:51;5.88;;;2.40;;
10701;SDS011;5402;50.004;8.246;2022-10-26T14:41:22;4.28;;;2.40;;
10701;SDS011;5402;50.004;8.246;2022-10-26T14:43:50;4.35;;;2.10;;
10701;SDS011;5402;50.004;8.246;2022-10-26T14:46:22;2.53;;;2.10;;
10701;SDS011;5402;50.004;8.246;2022-10-26T14:48:51;3.30;;;2.05;;
10701;SDS011;5402;50.004;8.246;2022-10-26T14:51:20;4.63;;;2.00;;
10701;SDS011;5402;50.004;8.246;2022-10-26T14:53:51;4.60;;;2.03;;
10701;SDS011;5402;50.004;8.246;2022-10-26T14:56:20;8.65;;;2.38;;
10701;SDS011;5402;50.004;8.246;2022-10-26T14:58:49;6.05;;;2.33;;
10701;SDS011;5402;50.004;8.246;2022-10-26T15:01:26;2.53;;;1.77;;
10701;SDS011;5402;50.004;8.246;2022-10-26T15:03:59;6.22;;;2.50;;
10701;SDS011;5402;50.004;8.246;2022-10-26T15:06:32;3.35;;;2.10;;
10701;SDS011;5402;50.004;8.246;2022-10-26T15:09:03;5.07;;;2.05;;
10701;SDS011;5402;50.004;8.246;2022-10-26T15:11:31;4.63;;;2.28;;
10701;SDS011;5402;50.004;8.246;2022-10-26T15:13:59;4.20;;;2.10;;
10701;SDS011;5402;50.004;8.246;2022-10-26T15:16:28;8.52;;;2.70;;
10701;SDS011;5402;50.004;8.246;2022-10-26T15:19:07;4.60;;;1.88;;
10701;SDS011;5402;50.004;8.246;2022-10-26T15:21:36;2.88;;;2.17;;
10701;SDS011;5402;50.004;8.246;2022-10-26T15:24:17;5.07;;;2.22;;
10701;SDS011;5402;50.004;8.246;2022-10-26T15:26:55;3.50;;;2.05;;
10701;SDS011;5402;50.004;8.246;2022-10-26T15:32:17;4.65;;;2.50;;
10701;SDS011;5402;50.004;8.246;2022-10-26T15:37:44;8.85;;;2.30;;
10701;SDS011;5402;50.004;8.246;2022-10-26T15:40:11;4.30;;;2.20;;
10701;SDS011;5402;50.004;8.246;2022-10-26T15:42:39;5.05;;;2.72;;
10701;SDS011;5402;50.004;8.246;2022-10-26T15:45:12;4.50;;;2.50;;
10701;SDS011;5402;50.004;8.246;2022-10-26T15:47:42;6.85;;;2.67;;
10701;SDS011;5402;50.004;8.246;2022-10-26T15:50:11;5.88;;;2.83;;